createdAt,value
2022-10-23T00:01:36.665Z,100666.50
2022-10-23T00:03:39.440Z,100665.66
2022-10-23T00:05:42.230Z,100671.75
2022-10-23T00:07:46.337Z,100666.50
2022-10-23T00:09:49.035Z,100660.41
2022-10-23T00:11:53.024Z,100656.03
2022-10-23T00:13:57.891Z,100655.13
2022-10-23T00:16:00.680Z,100654.28
2022-10-23T00:18:03.522Z,100655.19
2022-10-23T00:20:07.975Z,100649.06
2022-10-23T00:22:12.609Z,100642.13
2022-10-23T00:24:16.705Z,100636.00
2022-10-23T00:26:20.124Z,100625.53
2022-10-23T00:28:22.876Z,100627.28
2022-10-23T00:30:25.738Z,100633.38
2022-10-23T00:32:28.984Z,100636.84
2022-10-23T00:34:31.862Z,100633.38
2022-10-23T00:36:34.922Z,100632.50
2022-10-23T00:38:38.956Z,100633.34
2022-10-23T00:40:44.796Z,100638.56
2022-10-23T00:42:47.599Z,100632.50
2022-10-23T00:45:11.026Z,100629.88
2022-10-23T00:47:14.908Z,100622.03
2022-10-23T00:49:18.027Z,100627.28
2022-10-23T00:51:21.118Z,100627.28
2022-10-23T00:53:24.738Z,100621.16
2022-10-23T00:55:28.288Z,100619.44
2022-10-23T00:57:32.521Z,100619.44
2022-10-23T00:59:35.818Z,100611.59
2022-10-23T01:01:38.804Z,100606.38
2022-10-23T01:03:41.983Z,100606.38
2022-10-23T01:05:50.154Z,100608.97
2022-10-23T01:07:57.662Z,100615.06
2022-10-23T01:10:06.905Z,100612.44
2022-10-23T01:12:16.484Z,100609.84
2022-10-23T01:14:28.369Z,100617.66
2022-10-23T01:16:40.629Z,100611.53
2022-10-23T01:18:48.926Z,100615.91
2022-10-23T01:20:58.034Z,100600.22
2022-10-23T01:23:13.411Z,100601.09
2022-10-23T01:25:30.031Z,100602.84
2022-10-23T01:27:37.528Z,100602.84
2022-10-23T01:29:44.766Z,100599.38
2022-10-23T01:31:51.354Z,100603.69
2022-10-23T01:33:59.985Z,100604.59
2022-10-23T01:36:06.775Z,100610.66
2022-10-23T01:38:15.125Z,100608.91
2022-10-23T01:40:24.961Z,100601.94
2022-10-23T01:42:33.901Z,100602.81
2022-10-23T01:44:42.849Z,100601.06
2022-10-23T01:46:48.005Z,100592.38
2022-10-23T01:48:54.217Z,100596.69
2022-10-23T01:51:01.234Z,100587.97
2022-10-23T01:53:04.691Z,100583.63
2022-10-23T01:55:11.381Z,100577.47
2022-10-23T01:57:18.818Z,100567.94
2022-10-23T01:59:25.317Z,100558.34
2022-10-23T02:01:32.689Z,100564.44
2022-10-23T02:03:38.364Z,100572.25
2022-10-23T02:05:41.185Z,100572.25
2022-10-23T02:07:44.568Z,100571.38
2022-10-23T02:09:47.814Z,100575.75
2022-10-23T02:11:55.818Z,100571.41
2022-10-23T02:14:04.295Z,100568.78
2022-10-23T02:16:14.523Z,100575.75
2022-10-23T02:18:35.385Z,100567.94
2022-10-23T02:22:59.423Z,100565.31
2022-10-23T02:25:09.976Z,100563.56
2022-10-23T02:27:21.597Z,100565.25
2022-10-23T02:29:32.516Z,100560.94
2022-10-23T02:31:35.929Z,100561.75
2022-10-23T02:33:40.640Z,100567.00
2022-10-23T02:35:43.313Z,100563.44
2022-10-23T02:37:57.409Z,100570.41
2022-10-23T02:40:03.919Z,100566.94
2022-10-23T02:42:22.192Z,100550.41
2022-10-23T02:44:33.723Z,100551.28
2022-10-23T02:46:45.214Z,100547.81
2022-10-23T02:48:59.550Z,100544.31
2022-10-23T02:51:07.259Z,100544.31
2022-10-23T02:53:17.315Z,100549.53
2022-10-23T02:55:32.413Z,100551.28
2022-10-23T02:57:42.057Z,100549.53
2022-10-23T02:59:53.355Z,100546.94
2022-10-23T03:02:03.637Z,100535.63
2022-10-23T03:04:11.565Z,100533.88
2022-10-23T03:06:14.792Z,100532.13
2022-10-23T03:08:17.527Z,100522.56
2022-10-23T03:10:20.526Z,100525.16
2022-10-23T03:12:23.454Z,100533.00
2022-10-23T03:14:26.215Z,100525.16
2022-10-23T03:16:29.147Z,100528.63
2022-10-23T03:18:31.967Z,100521.66
2022-10-23T03:20:37.071Z,100523.41
2022-10-23T03:22:41.579Z,100518.19
2022-10-23T03:24:45.060Z,100521.66
2022-10-23T03:26:48.876Z,100521.63
2022-10-23T03:28:51.625Z,100519.00
2022-10-23T03:30:56.905Z,100519.88
2022-10-23T03:33:00.050Z,100518.16
2022-10-23T03:35:02.863Z,100520.72
2022-10-23T03:37:07.120Z,100518.16
2022-10-23T03:39:09.902Z,100520.72
2022-10-23T03:41:12.700Z,100521.63
2022-10-23T03:43:15.722Z,100523.34
2022-10-23T03:45:18.566Z,100519.84
2022-10-23T03:47:21.553Z,100520.72
2022-10-23T03:49:24.534Z,100524.22
2022-10-23T03:51:27.973Z,100523.31
2022-10-23T03:53:32.070Z,100526.78
2022-10-23T03:55:37.808Z,100519.84
2022-10-23T03:57:40.621Z,100527.66
2022-10-23T03:59:43.420Z,100534.59
2022-10-23T04:01:47.154Z,100538.91
2022-10-23T04:03:50.022Z,100532.75
2022-10-23T04:05:53.138Z,100536.19
2022-10-23T04:07:58.402Z,100547.47
2022-10-23T04:10:02.849Z,100538.81
2022-10-23T04:12:06.515Z,100531.00
2022-10-23T04:14:11.772Z,100517.97
2022-10-23T04:16:14.574Z,100518.03
2022-10-23T04:18:17.529Z,100524.09
2022-10-23T04:20:20.375Z,100524.97
2022-10-23T04:22:25.935Z,100523.25
2022-10-23T04:24:30.644Z,100519.75
2022-10-23T04:26:34.835Z,100508.47
2022-10-23T04:28:37.605Z,100512.81
2022-10-23T04:30:41.534Z,100508.44
2022-10-23T04:32:46.714Z,100501.47
2022-10-23T04:34:51.244Z,100504.06
2022-10-23T04:36:54.027Z,100508.44
2022-10-23T04:38:56.773Z,100515.41
2022-10-23T04:40:59.533Z,100504.06
2022-10-23T04:43:04.228Z,100499.75
2022-10-23T04:45:11.637Z,100491.94
2022-10-23T04:47:17.147Z,100486.69
2022-10-23T04:49:31.857Z,100493.63
2022-10-23T04:51:53.676Z,100498.81
2022-10-23T04:54:05.339Z,100494.47
2022-10-23T04:56:26.550Z,100504.91
2022-10-23T04:58:39.819Z,100516.22
2022-10-23T05:00:44.040Z,100517.94
2022-10-23T05:02:49.813Z,100523.16
2022-10-23T05:04:53.307Z,100540.50
2022-10-23T05:07:14.573Z,100541.38
2022-10-23T05:09:36.802Z,100548.34
2022-10-23T05:11:58.229Z,100539.66
2022-10-23T05:14:02.394Z,100528.38
2022-10-23T05:16:05.618Z,100513.69
2022-10-23T05:18:15.957Z,100505.88
2022-10-23T05:20:24.540Z,100514.53
2022-10-23T05:22:31.482Z,100497.16
2022-10-23T05:24:34.250Z,100498.94
2022-10-23T05:26:38.473Z,100496.28
2022-10-23T05:28:43.909Z,100482.38
2022-10-23T05:30:52.062Z,100487.59
2022-10-23T05:32:55.559Z,100485.84
2022-10-23T05:35:04.017Z,100498.88
2022-10-23T05:37:10.347Z,100502.38
2022-10-23T05:39:15.309Z,100493.66
2022-10-23T05:41:18.310Z,100484.13
2022-10-23T05:43:21.396Z,100485.91
2022-10-23T05:45:27.940Z,100485.84
2022-10-23T05:47:50.824Z,100480.59
2022-10-23T05:50:13.621Z,100485.78
2022-10-23T05:52:40.813Z,100483.16
2022-10-23T05:54:51.522Z,100474.50
2022-10-23T05:59:27.285Z,100455.41
2022-10-23T06:01:48.051Z,100460.56
2022-10-23T06:04:01.241Z,100457.06
2022-10-23T06:06:24.086Z,100460.53
2022-10-23T06:08:26.881Z,100460.53
2022-10-23T06:10:29.736Z,100453.59
2022-10-23T06:12:35.616Z,100450.13
2022-10-23T06:14:38.906Z,100448.38
2022-10-23T06:16:41.846Z,100457.94
2022-10-23T06:18:45.935Z,100468.38
2022-10-23T06:20:52.422Z,100458.78
2022-10-23T06:23:04.783Z,100463.16
2022-10-23T06:25:26.256Z,100458.84
2022-10-23T06:27:31.625Z,100456.19
2022-10-23T06:29:34.462Z,100445.75
2022-10-23T06:31:37.419Z,100451.84
2022-10-23T06:33:41.359Z,100453.63
2022-10-23T06:35:45.489Z,100450.94
2022-10-23T06:37:51.152Z,100448.34
2022-10-23T06:40:04.103Z,100453.59
2022-10-23T06:42:16.014Z,100456.19
2022-10-23T06:44:44.952Z,100453.63
2022-10-23T06:46:52.490Z,100451.88
2022-10-23T06:49:16.106Z,100454.50
2022-10-23T06:51:23.907Z,100457.09
2022-10-23T06:53:28.111Z,100451.88
2022-10-23T06:55:41.025Z,100452.75
2022-10-23T06:57:46.150Z,100458.88
2022-10-23T06:59:49.239Z,100458.88
2022-10-23T07:03:55.687Z,100454.53
2022-10-23T07:06:02.976Z,100459.75
2022-10-23T07:08:06.857Z,100465.88
2022-10-23T07:10:17.117Z,100472.84
2022-10-23T07:12:23.378Z,100465.91
2022-10-23T07:14:36.045Z,100475.47
2022-10-23T07:16:39.270Z,100464.19
2022-10-23T07:18:42.376Z,100464.19
2022-10-23T07:20:59.605Z,100460.75
2022-10-23T07:23:02.532Z,100456.38
2022-10-23T07:25:11.569Z,100463.34
2022-10-23T07:27:16.506Z,100465.06
2022-10-23T07:29:20.276Z,100465.94
2022-10-23T07:31:28.144Z,100462.47
2022-10-23T07:34:10.816Z,100472.91
2022-10-23T07:36:13.738Z,100471.19
2022-10-23T07:38:17.653Z,100474.66
2022-10-23T07:40:25.789Z,100486.88
2022-10-23T07:42:33.170Z,100478.13
2022-10-23T07:44:35.978Z,100475.50
2022-10-23T07:46:38.750Z,100467.69
2022-10-23T07:48:43.207Z,100471.22
2022-10-23T07:50:46.848Z,100466.06
2022-10-23T07:52:49.586Z,100472.97
2022-10-23T07:54:53.598Z,100483.41
2022-10-23T07:56:57.171Z,100467.78
2022-10-23T07:59:12.524Z,100467.78
2022-10-23T08:01:20.045Z,100460.88
2022-10-23T08:03:23.015Z,100452.16
2022-10-23T08:05:26.706Z,100440.84
2022-10-23T08:07:34.657Z,100446.97
2022-10-23T08:09:38.019Z,100449.56
2022-10-23T08:11:40.787Z,100453.06
2022-10-23T08:13:44.805Z,100455.69
2022-10-23T08:15:51.046Z,100447.84
2022-10-23T08:18:17.507Z,100439.13
2022-10-23T08:20:21.091Z,100437.38
2022-10-23T08:22:23.843Z,100431.28
2022-10-23T08:24:26.786Z,100429.56
2022-10-23T08:26:30.365Z,100426.06
2022-10-23T08:28:33.845Z,100434.75
2022-10-23T08:30:38.825Z,100417.34
2022-10-23T08:32:43.229Z,100413.84
2022-10-23T08:34:48.133Z,100416.47
2022-10-23T08:36:51.087Z,100420.81
2022-10-23T08:38:56.042Z,100422.53
2022-10-23T08:41:01.435Z,100426.03
2022-10-23T08:43:34.471Z,100412.94
2022-10-23T08:45:56.778Z,100417.28
2022-10-23T08:48:40.165Z,100412.03
2022-10-23T08:51:12.467Z,100418.13
2022-10-23T08:53:19.776Z,100410.28
2022-10-23T08:55:27.546Z,100403.28
2022-10-23T08:57:38.755Z,100408.53
2022-10-23T08:59:48.149Z,100399.81
2022-10-23T09:01:56.945Z,100396.31
2022-10-23T09:04:01.524Z,100396.34
2022-10-23T09:06:28.757Z,100397.19
2022-10-23T09:08:45.590Z,100399.81
2022-10-23T09:11:03.379Z,100399.78
2022-10-23T09:13:22.572Z,100403.28
2022-10-23T09:15:31.049Z,100392.75
2022-10-23T09:17:37.906Z,100404.94
2022-10-23T09:19:42.916Z,100403.13
2022-10-23T09:21:49.728Z,100410.09
2022-10-23T09:23:52.567Z,100403.97
2022-10-23T09:25:56.916Z,100401.25
2022-10-23T09:28:05.238Z,100387.28
2022-10-23T09:30:09.929Z,100384.59
2022-10-23T09:32:13.064Z,100388.91
2022-10-23T09:34:20.431Z,100376.47
2022-10-23T09:36:27.351Z,100371.19
2022-10-23T09:38:32.584Z,100382.59
2022-10-23T09:40:41.500Z,100382.41
2022-10-23T09:42:59.465Z,100390.28
2022-10-23T09:45:02.587Z,100378.06
2022-10-23T09:47:12.000Z,100384.19
2022-10-23T09:49:23.760Z,100384.16
2022-10-23T09:51:28.077Z,100383.28
2022-10-23T09:53:35.049Z,100377.16
2022-10-23T09:55:37.851Z,100377.94
2022-10-23T09:57:43.824Z,100372.63
2022-10-23T09:59:52.649Z,100370.88
2022-10-23T10:01:58.433Z,100368.19
2022-10-23T10:04:33.276Z,100360.19
2022-10-23T10:06:37.603Z,100354.00
2022-10-23T10:08:46.145Z,100359.13
2022-10-23T10:10:53.011Z,100360.16
2022-10-23T10:13:00.040Z,100357.50
2022-10-23T10:15:11.938Z,100355.69
2022-10-23T10:17:23.451Z,100364.44
2022-10-23T10:19:37.569Z,100348.69
2022-10-23T10:21:47.986Z,100358.28
2022-10-23T10:24:01.217Z,100360.06
2022-10-23T10:26:12.105Z,100356.53
2022-10-23T10:28:30.642Z,100364.31
2022-10-23T10:30:45.568Z,100366.00
2022-10-23T10:32:55.419Z,100359.91
2022-10-23T10:35:05.781Z,100363.41
2022-10-23T10:37:22.374Z,100351.13
2022-10-23T10:39:33.738Z,100345.81
2022-10-23T10:41:45.990Z,100332.66
2022-10-23T10:44:01.398Z,100330.84
2022-10-23T10:46:12.364Z,100329.91
2022-10-23T10:48:32.280Z,100315.84
2022-10-23T10:51:06.553Z,100319.28
2022-10-23T10:53:29.261Z,100320.88
2022-10-23T10:55:36.720Z,100312.91
2022-10-23T10:57:43.078Z,100303.88
2022-10-23T10:59:52.263Z,100305.41
2022-10-23T11:02:03.786Z,100311.53
2022-10-23T11:04:14.436Z,100308.09
2022-10-23T11:06:21.685Z,100318.59
2022-10-23T11:08:44.479Z,100317.59
2022-10-23T11:11:01.247Z,100325.53
2022-10-23T11:13:05.504Z,100341.44
2022-10-23T11:15:15.110Z,100329.84
2022-10-23T11:17:24.153Z,100326.97
2022-10-23T11:19:30.243Z,100307.47
2022-10-23T11:21:38.957Z,100301.28
2022-10-23T11:23:59.599Z,100292.50
2022-10-23T11:26:19.748Z,100287.94
2022-10-23T11:28:41.330Z,100280.88
2022-10-23T11:31:00.703Z,100279.06
2022-10-23T11:33:35.932Z,100278.91
2022-10-23T11:36:01.922Z,100278.91
2022-10-23T11:38:16.603Z,100276.91
2022-10-23T11:40:25.960Z,100272.31
2022-10-23T11:42:32.685Z,100270.66
2022-10-23T11:44:44.570Z,100268.88
2022-10-23T11:47:01.745Z,100271.53
2022-10-23T11:49:06.721Z,100273.22
2022-10-23T11:51:28.966Z,100267.81
2022-10-23T11:53:40.472Z,100258.97
2022-10-23T11:55:58.289Z,100249.16
2022-10-23T11:58:14.797Z,100252.00
2022-10-23T12:00:23.236Z,100254.50
2022-10-23T12:02:32.800Z,100247.47
2022-10-23T12:04:41.617Z,100236.84
2022-10-23T12:06:47.912Z,100231.38
2022-10-23T12:08:57.357Z,100223.22
2022-10-23T12:11:01.700Z,100208.94
2022-10-23T12:13:06.953Z,100202.63
2022-10-23T12:15:20.758Z,100209.50
2022-10-23T12:17:33.463Z,100217.31
2022-10-23T12:19:48.626Z,100221.63
2022-10-23T12:21:53.706Z,100215.44
2022-10-23T12:24:10.315Z,100211.84
2022-10-23T12:26:32.535Z,100204.28
2022-10-23T12:28:41.735Z,100199.00
2022-10-23T12:30:51.828Z,100194.69
2022-10-23T12:33:07.444Z,100187.63
2022-10-23T12:35:29.613Z,100191.13
2022-10-23T12:38:06.110Z,100186.56
2022-10-23T12:40:10.967Z,100189.13
2022-10-23T12:42:21.935Z,100175.53
2022-10-23T12:44:26.179Z,100165.00
2022-10-23T12:46:34.974Z,100166.66
2022-10-23T12:48:49.387Z,100155.06
2022-10-23T12:50:53.860Z,100160.25
2022-10-23T12:52:59.026Z,100163.59
2022-10-23T12:55:12.319Z,100168.81
2022-10-23T12:57:22.673Z,100159.53
2022-10-23T12:59:29.048Z,100158.50
2022-10-23T13:01:33.530Z,100155.88
2022-10-23T13:03:36.959Z,100157.09
2022-10-23T13:05:39.854Z,100145.84
2022-10-23T13:07:46.611Z,100141.22
2022-10-23T13:09:51.764Z,100139.28
2022-10-23T13:12:09.440Z,100128.97
2022-10-23T13:14:14.599Z,100123.66
2022-10-23T13:16:19.236Z,100123.25
2022-10-23T13:18:22.153Z,100113.69
2022-10-23T13:20:27.682Z,100115.34
2022-10-23T13:22:30.655Z,100107.38
2022-10-23T13:24:33.515Z,100105.03
2022-10-23T13:26:42.807Z,100110.16
2022-10-23T13:28:46.671Z,100120.72
2022-10-23T13:31:01.769Z,100109.38
2022-10-23T13:33:15.483Z,100110.31
2022-10-23T13:35:22.659Z,100105.09
2022-10-23T13:37:27.239Z,100101.53
2022-10-23T13:39:32.616Z,100093.78
2022-10-23T13:41:38.238Z,100099.06
2022-10-23T13:43:41.588Z,100099.06
2022-10-23T13:45:44.377Z,100097.41
2022-10-23T13:47:48.715Z,100085.94
2022-10-23T13:49:51.541Z,100078.88
2022-10-23T13:51:56.222Z,100075.38
2022-10-23T13:53:58.988Z,100075.16
2022-10-23T13:56:01.769Z,100064.78
2022-10-23T13:58:04.542Z,100056.94
2022-10-23T14:00:09.048Z,100055.19
2022-10-23T14:02:21.002Z,100053.38
2022-10-23T14:04:25.203Z,100062.19
2022-10-23T14:06:28.209Z,100057.84
2022-10-23T14:08:31.014Z,100046.44
2022-10-23T14:10:34.946Z,100055.22
2022-10-23T14:12:41.483Z,100050.81
2022-10-23T14:14:44.521Z,100049.06
2022-10-23T14:16:47.406Z,100048.25
2022-10-23T14:18:50.630Z,100051.75
2022-10-23T14:20:54.810Z,100052.72
2022-10-23T14:22:57.691Z,100046.56
2022-10-23T14:25:00.474Z,100044.03
2022-10-23T14:27:03.342Z,100049.44
2022-10-23T14:29:09.846Z,100048.63
2022-10-23T14:31:18.489Z,100045.13
2022-10-23T14:33:21.132Z,100034.84
2022-10-23T14:35:25.493Z,100031.31
2022-10-23T14:37:30.694Z,100033.91
2022-10-23T14:39:33.567Z,100037.41
2022-10-23T14:41:37.243Z,100047.03
2022-10-23T14:43:40.046Z,100045.31
2022-10-23T14:45:42.807Z,100037.44
2022-10-23T14:47:46.323Z,100031.31
2022-10-23T14:49:53.442Z,100026.09
2022-10-23T14:51:56.262Z,100040.09
2022-10-23T14:54:03.337Z,100033.91
2022-10-23T14:56:06.913Z,100039.28
2022-10-23T14:58:09.836Z,100032.16
2022-10-23T15:00:14.032Z,100034.81
2022-10-23T15:02:17.964Z,100026.94
2022-10-23T15:04:21.618Z,100024.22
2022-10-23T15:06:25.004Z,100022.34
2022-10-23T15:08:27.925Z,100014.44
2022-10-23T15:10:32.015Z,100014.53
2022-10-23T15:12:35.446Z,100020.84
2022-10-23T15:14:38.187Z,100019.31
2022-10-23T15:16:42.298Z,100024.84
2022-10-23T15:18:45.143Z,100025.72
2022-10-23T15:20:52.831Z,100010.72
2022-10-23T15:22:55.556Z,100014.09
2022-10-23T15:25:17.930Z,100007.13
2022-10-23T15:27:22.267Z,99998.28
2022-10-23T15:29:25.078Z,99999.22
2022-10-23T15:31:55.404Z,99999.22
2022-10-23T15:33:58.617Z,99995.78
2022-10-23T15:36:01.386Z,99983.50
2022-10-23T15:38:04.192Z,99976.44
2022-10-23T15:40:10.636Z,99978.19
2022-10-23T15:42:13.609Z,99981.72
2022-10-23T15:44:19.947Z,99975.56
2022-10-23T15:46:22.689Z,99974.81
2022-10-23T15:48:25.463Z,99969.63
2022-10-23T15:50:28.381Z,99968.88
2022-10-23T15:52:31.142Z,99964.72
2022-10-23T15:54:33.962Z,99956.88
2022-10-23T15:56:36.954Z,99953.41
2022-10-23T15:58:39.874Z,99948.22
2022-10-23T16:00:43.959Z,99950.13
2022-10-23T16:02:46.999Z,99943.25
2022-10-23T16:04:50.391Z,99947.72
2022-10-23T16:06:53.236Z,99947.91
2022-10-23T16:08:56.028Z,99954.44
2022-10-23T16:10:59.588Z,99942.34
2022-10-23T16:13:02.355Z,99954.75
2022-10-23T16:15:07.838Z,99943.22
2022-10-23T16:17:13.131Z,99934.31
2022-10-23T16:19:15.986Z,99924.84
2022-10-23T16:21:23.095Z,99923.16
2022-10-23T16:23:28.105Z,99911.94
2022-10-23T16:25:30.852Z,99914.69
2022-10-23T16:27:33.689Z,99913.09
2022-10-23T16:29:36.653Z,99923.03
2022-10-23T16:31:39.432Z,99907.38
2022-10-23T16:33:43.636Z,99917.91
2022-10-23T16:35:46.525Z,99924.16
2022-10-23T16:37:54.242Z,99924.22
2022-10-23T16:39:57.563Z,99913.72
2022-10-23T16:42:19.126Z,99922.69
2022-10-23T16:44:45.067Z,99915.75
2022-10-23T16:46:47.796Z,99910.50
2022-10-23T16:48:52.893Z,99895.44
2022-10-23T16:50:55.717Z,99904.47
2022-10-23T16:52:58.488Z,99909.00
2022-10-23T16:55:01.638Z,99905.03
2022-10-23T16:57:04.650Z,99918.50
2022-10-23T16:59:07.836Z,99918.34
2022-10-23T17:01:16.685Z,99921.75
2022-10-23T17:03:19.528Z,99921.50
2022-10-23T17:05:23.730Z,99936.84
2022-10-23T17:07:26.571Z,99950.13
2022-10-23T17:09:31.196Z,99950.84
2022-10-23T17:11:36.547Z,99941.09
2022-10-23T17:13:42.236Z,99948.03
2022-10-23T17:15:45.013Z,99963.81
2022-10-23T17:17:47.857Z,99972.78
2022-10-23T17:19:50.654Z,99972.00
2022-10-23T17:21:56.002Z,99986.09
2022-10-23T17:26:08.063Z,100006.28
2022-10-23T17:28:10.829Z,100004.59
2022-10-23T17:30:14.288Z,100018.59
2022-10-23T17:32:17.140Z,100032.69
2022-10-23T17:34:22.689Z,100049.59
2022-10-23T17:36:26.923Z,100062.88
2022-10-23T17:38:31.139Z,100092.66
2022-10-23T17:40:34.801Z,100104.22
2022-10-23T17:42:37.573Z,100160.22
2022-10-23T17:44:40.307Z,100165.41
2022-10-23T17:46:43.116Z,100208.50
2022-10-23T17:48:45.977Z,100193.75
2022-10-23T17:50:48.809Z,100166.69
2022-10-23T17:52:52.232Z,100176.97
2022-10-23T17:54:56.349Z,100158.31
2022-10-23T17:56:59.237Z,100153.03
2022-10-23T17:59:04.241Z,100160.94
2022-10-23T18:01:08.178Z,100159.22
2022-10-23T18:03:11.046Z,100155.88
2022-10-23T18:05:13.771Z,100159.31
2022-10-23T18:07:16.602Z,100151.34
2022-10-23T18:09:19.442Z,100157.47
2022-10-23T18:11:25.359Z,100144.22
2022-10-23T18:13:28.149Z,100107.41
2022-10-23T18:15:30.986Z,100106.59
2022-10-23T18:17:34.855Z,100098.81
2022-10-23T18:19:37.561Z,100104.91
2022-10-23T18:21:40.384Z,100069.69
2022-10-23T18:23:43.788Z,100057.69
2022-10-23T18:25:46.830Z,100065.84
2022-10-23T18:27:51.002Z,100059.59
2022-10-23T18:29:54.009Z,100068.56
2022-10-23T18:31:56.812Z,100077.41
2022-10-23T18:34:01.409Z,100083.53
2022-10-23T18:36:05.448Z,100092.25
2022-10-23T18:38:09.728Z,100094.06
2022-10-23T18:40:14.094Z,100104.53
2022-10-23T18:42:16.897Z,100110.69
2022-10-23T18:44:22.766Z,100113.28
2022-10-23T18:46:25.596Z,100121.22
2022-10-23T18:48:28.438Z,100120.44
2022-10-23T18:50:31.316Z,100124.84
2022-10-23T18:52:34.082Z,100145.88
2022-10-23T18:54:36.878Z,100124.88
2022-10-23T18:56:39.823Z,100121.25
2022-10-23T18:58:43.111Z,100123.16
2022-10-23T19:00:47.301Z,100098.72
2022-10-23T19:02:52.347Z,100105.75
2022-10-23T19:04:55.707Z,100104.84
2022-10-23T19:06:58.572Z,100097.81
2022-10-23T19:09:01.395Z,100095.22
2022-10-23T19:11:05.076Z,100097.00
2022-10-23T19:13:08.165Z,100105.88
2022-10-23T19:15:11.322Z,100097.94
2022-10-23T19:17:19.543Z,100095.22
2022-10-23T19:19:25.364Z,100090.88
2022-10-23T19:21:31.632Z,100080.44
2022-10-23T19:23:36.291Z,100076.06
2022-10-23T19:25:39.442Z,100076.00
2022-10-23T19:27:44.174Z,100088.28
2022-10-23T19:29:50.422Z,100091.81
2022-10-23T19:31:53.976Z,100089.09
2022-10-23T19:33:58.134Z,100083.03
2022-10-23T19:36:05.226Z,100083.84
2022-10-23T19:38:08.489Z,100076.19
2022-10-23T19:40:12.572Z,100071.75
2022-10-23T19:42:15.381Z,100064.88
2022-10-23T19:44:19.027Z,100071.88
2022-10-23T19:46:21.977Z,100071.78
2022-10-23T19:48:24.819Z,100069.16
2022-10-23T19:50:29.056Z,100073.63
2022-10-23T19:52:31.813Z,100065.69
2022-10-23T19:54:34.662Z,100074.44
2022-10-23T19:56:38.108Z,100074.38
2022-10-23T19:58:41.412Z,100080.56
2022-10-23T20:00:44.134Z,100075.28
2022-10-23T20:02:49.109Z,100077.13
2022-10-23T20:04:54.323Z,100071.16
2022-10-23T20:06:58.746Z,100070.19
2022-10-23T20:09:02.427Z,100060.56
2022-10-23T20:11:05.484Z,100066.66
2022-10-23T20:13:19.428Z,100065.09
2022-10-23T20:15:23.414Z,100060.72
2022-10-23T20:17:26.176Z,100066.03
2022-10-23T20:19:29.508Z,100079.13
2022-10-23T20:21:32.312Z,100086.16
2022-10-23T20:23:36.665Z,100088.78
2022-10-23T20:25:39.511Z,100093.03
2022-10-23T20:27:42.822Z,100090.47
2022-10-23T20:29:46.764Z,100090.34
2022-10-23T20:31:49.584Z,100087.00
2022-10-23T20:33:52.489Z,100083.47
2022-10-23T20:38:02.886Z,100082.69
2022-10-23T20:40:08.330Z,100091.41
2022-10-23T20:42:11.103Z,100087.78
2022-10-23T20:46:19.954Z,100085.16
2022-10-23T20:48:22.716Z,100095.78
2022-10-23T20:50:25.533Z,100097.41
2022-10-23T20:52:30.122Z,100098.22
2022-10-23T20:54:32.781Z,100103.63
2022-10-23T20:56:39.011Z,100106.34
2022-10-23T20:58:42.039Z,100113.22
2022-10-23T21:00:44.789Z,100121.16
2022-10-23T21:02:49.946Z,100118.47
2022-10-23T21:04:54.933Z,100121.06
2022-10-23T21:07:15.356Z,100123.72
2022-10-23T21:09:18.131Z,100128.22
2022-10-23T21:11:20.910Z,100131.69
2022-10-23T21:13:25.120Z,100139.50
2022-10-23T21:15:29.201Z,100142.16
2022-10-23T21:17:35.455Z,100139.50
2022-10-23T21:19:39.671Z,100138.69
2022-10-23T21:21:42.858Z,100138.75
2022-10-23T21:23:46.939Z,100144.72
2022-10-23T21:25:49.706Z,100140.38
2022-10-23T21:27:52.490Z,100148.25
2022-10-23T21:29:56.601Z,100153.56
2022-10-23T21:32:01.485Z,100144.88
2022-10-23T21:34:04.967Z,100147.41
2022-10-23T21:36:13.835Z,100154.47
2022-10-23T21:38:16.921Z,100150.94
2022-10-23T21:40:19.656Z,100144.81
2022-10-23T21:42:22.521Z,100152.66
2022-10-23T21:44:25.331Z,100153.50
2022-10-23T21:46:30.774Z,100150.00
2022-10-23T21:48:34.306Z,100154.47
2022-10-23T21:50:37.159Z,100149.22
2022-10-23T21:52:40.214Z,100150.94
2022-10-23T21:54:42.983Z,100167.66
2022-10-23T21:56:47.950Z,100153.66
2022-10-23T21:58:50.705Z,100142.19
2022-10-23T22:00:53.477Z,100157.13
2022-10-23T22:02:57.558Z,100150.13
2022-10-23T22:05:00.307Z,100145.69
2022-10-23T22:07:03.651Z,100141.38
2022-10-23T22:09:07.332Z,100143.31
2022-10-23T22:11:11.448Z,100157.28
2022-10-23T22:13:14.235Z,100151.97
2022-10-23T22:15:17.145Z,100140.50
2022-10-23T22:17:19.892Z,100148.50
2022-10-23T22:19:24.144Z,100150.38
2022-10-23T22:21:28.870Z,100138.06
2022-10-23T22:23:32.036Z,100144.97
2022-10-23T22:25:34.792Z,100130.97
2022-10-23T22:27:38.413Z,100131.84
2022-10-23T22:29:41.359Z,100135.34
2022-10-23T22:31:47.234Z,100135.31
2022-10-23T22:33:53.988Z,100130.97
2022-10-23T22:36:03.175Z,100130.97
2022-10-23T22:38:06.089Z,100135.44
2022-10-23T22:40:09.998Z,100137.16
2022-10-23T22:42:12.783Z,100138.94
2022-10-23T22:44:16.067Z,100138.81
2022-10-23T22:46:19.865Z,100139.78
2022-10-23T22:48:22.614Z,100130.03
2022-10-23T22:50:25.402Z,100139.81
2022-10-23T22:52:29.491Z,100143.41
2022-10-23T22:54:32.455Z,100145.13
2022-10-23T22:56:35.920Z,100144.38
2022-10-23T22:58:38.917Z,100153.97
2022-10-23T23:00:43.629Z,100153.09
2022-10-23T23:02:46.569Z,100148.72
2022-10-23T23:04:49.375Z,100147.81
2022-10-23T23:06:52.115Z,100145.13
2022-10-23T23:08:56.535Z,100142.44
2022-10-23T23:11:00.173Z,100137.28
2022-10-23T23:13:02.878Z,100142.56
2022-10-23T23:15:06.428Z,100139.91
2022-10-23T23:17:10.019Z,100144.28
2022-10-23T23:19:13.083Z,100141.69
2022-10-23T23:21:16.425Z,100145.09
2022-10-23T23:23:19.828Z,100146.97
2022-10-23T23:25:23.903Z,100142.56
2022-10-23T23:27:27.084Z,100146.97
2022-10-23T23:29:29.879Z,100151.31
2022-10-23T23:31:32.701Z,100151.31
2022-10-23T23:33:36.053Z,100146.88
2022-10-23T23:35:40.899Z,100148.66
2022-10-23T23:37:43.680Z,100148.72
2022-10-23T23:39:46.463Z,100149.63
2022-10-23T23:41:50.585Z,100150.50
2022-10-23T23:43:54.898Z,100149.69
2022-10-23T23:45:58.030Z,100153.22
2022-10-23T23:48:00.751Z,100150.50
2022-10-23T23:50:04.578Z,100151.38
2022-10-23T23:52:07.387Z,100154.84
2022-10-23T23:54:13.123Z,100152.25
2022-10-23T23:56:16.236Z,100153.09
2022-10-23T23:58:20.413Z,100153.91
